This is the latest recevied weather packets stored in our database for station/object SQ6ELQ-11. If no packets are shown the sender has not sent any weather packets the latest 1 day(s).
| Time | Temp. | Humidity | Pressure | Rain* | Wind** | Luminosity | Snow |
|---|---|---|---|---|---|---|---|
| 1777966128 | 17.78° C | 43% | 1009.8 hPa | 0 mm | 0 m/s | - | - |
| 1777965071 | 17.78° C | 43% | 1009.7 hPa | 0 mm | 0 m/s | - | - |
| 1777964001 | 17.22° C | 43% | 1009.7 hPa | 0 mm | 0 m/s | - | - |
| 1777962971 | 16.67° C | 45% | 1009.7 hPa | 0 mm | 0 m/s | - | - |
| 1777961888 | 15.56° C | 47% | 1009.8 hPa | 0 mm | 0 m/s | - | - |
| 1777960786 | 15° C | 50% | 1009.9 hPa | 0 mm | 0 m/s | - | - |
| 1777959756 | 14.44° C | 52% | 1009.9 hPa | 0 mm | 0 m/s | - | - |
| 1777958646 | 13.89° C | 53% | 1009.7 hPa | 0 mm | 0 m/s | - | - |
| 1777957544 | 13.33° C | 52% | 1010 hPa | 0 mm | 0 m/s | - | - |
| 1777956396 | 12.78° C | 54% | 1009.9 hPa | 0 mm | 0 m/s | - | - |
| 1777955231 | 12.22° C | 53% | 1010.1 hPa | 0 mm | 0 m/s | - | - |
| 1777954147 | 12.22° C | 53% | 1010.5 hPa | 0 mm | 0 m/s | - | - |
| 1777953111 | 12.22° C | 53% | 1010.6 hPa | 0 mm | 0 m/s | - | - |
| 1777952021 | 12.22° C | 53% | 1010.6 hPa | 0 mm | 0 m/s | - | - |
| 1777950976 | 12.22° C | 54% | 1010.6 hPa | 0 mm | 0 m/s | - | - |
| 1777949881 | 12.78° C | 55% | 1010.7 hPa | 0 mm | 0 m/s | - | - |
| 1777948761 | 11.67° C | 58% | 1010.9 hPa | 0 mm | 0 m/s | - | - |
| 1777947691 | 10.56° C | 65% | 1011.2 hPa | 0 mm | 0 m/s | - | - |
| 1777946625 | 10° C | 65% | 1011.5 hPa | 0 mm | 0 m/s | - | - |
| 1777945537 | 10° C | 64% | 1011.6 hPa | 0 mm | 0 m/s | - | - |
| 1777944470 | 10° C | 64% | 1011.7 hPa | 0 mm | 0 m/s | - | - |
| 1777943471 | 10° C | 64% | 1012 hPa | 0 mm | 0 m/s | - | - |
| 1777942371 | 10° C | 63% | 1012.3 hPa | 0 mm | 0 m/s | - | - |
| 1777941246 | 10° C | 62% | 1012.3 hPa | 0 mm | 0 m/s | - | - |
| 1777940156 | 10° C | 65% | 1012.4 hPa | 0 mm | 0 m/s | - | - |
* Rain latest hour (hover to see other rain measurements)
** Current wind speed in m/s (hover to see current wind gust speed)